Time;durP1;ratioP1;P1;durP2;ratioP2;P2;SDS_P1;SDS_P2;PMS_P1;PMS_P2;Temp;Humidity;BMP_temperature;BMP_pressure;BME280_temperature;BME280_humidity;BME280_pressure;Samples;Min_cycle;Max_cycle;Signal;HPM_P1;HPM_P2
2022/09/28 00:00:59;;;;;;;0.10;0.10;;;8.80;99.90;;;;;;4962139;28;20267;-74
2022/09/28 00:03:27;;;;;;;0.10;0.10;;;8.80;99.90;;;;;;4990436;28;20208;-74
2022/09/28 00:06:01;;;;;;;0.10;0.10;;;8.80;99.90;;;;;;4989984;28;20280;-74
2022/09/28 00:08:29;;;;;;;0.10;0.10;;;8.70;99.90;;;;;;4980272;28;20243;-74
2022/09/28 00:10:58;;;;;;;0.10;0.10;;;8.60;99.90;;;;;;4995719;28;20671;-74
2022/09/28 00:13:27;;;;;;;0.10;0.10;;;8.60;99.90;;;;;;4955896;29;20665;-74
2022/09/28 00:16:02;;;;;;;0.10;0.10;;;8.70;99.90;;;;;;4965834;28;20276;-74
2022/09/28 00:18:31;;;;;;;0.00;0.00;;;8.70;99.90;;;;;;4986439;28;20280;-75
2022/09/28 00:21:04;;;;;;;0.10;0.10;;;8.70;99.90;;;;;;4955653;29;20210;-74
2022/09/28 00:23:33;;;;;;;0.10;0.10;;;8.70;99.90;;;;;;4966365;28;20268;-74
2022/09/28 00:26:05;;;;;;;0.10;0.10;;;8.70;99.90;;;;;;4978168;28;20224;-75
2022/09/28 00:28:33;;;;;;;0.10;0.10;;;8.70;99.90;;;;;;4989692;28;20564;-75
2022/09/28 00:31:01;;;;;;;0.10;0.10;;;8.70;99.90;;;;;;4981468;28;20213;-75
2022/09/28 00:33:29;;;;;;;0.10;0.10;;;8.70;99.90;;;;;;4978222;28;20672;-75
2022/09/28 00:35:57;;;;;;;0.10;0.10;;;8.70;99.90;;;;;;4976198;28;20228;-75
2022/09/28 00:38:29;;;;;;;0.10;0.10;;;8.70;99.90;;;;;;4971774;28;20216;-74
2022/09/28 00:40:58;;;;;;;0.10;0.10;;;8.70;99.90;;;;;;4960101;28;20667;-74
2022/09/28 00:43:27;;;;;;;0.10;0.10;;;8.60;99.90;;;;;;4981329;28;20665;-74
2022/09/28 00:45:59;;;;;;;0.10;0.10;;;8.70;99.90;;;;;;4959528;28;20232;-74
2022/09/28 00:48:31;;;;;;;0.10;0.10;;;8.60;99.90;;;;;;4949192;28;20681;-74
2022/09/28 00:51:04;;;;;;;0.10;0.10;;;8.60;99.90;;;;;;4964881;28;20212;-74
2022/09/28 00:53:34;;;;;;;0.10;0.10;;;8.50;99.90;;;;;;4992559;28;20734;-76
2022/09/28 00:56:06;;;;;;;0.10;0.10;;;8.50;99.90;;;;;;4984828;28;20240;-75
2022/09/28 00:58:39;;;;;;;0.10;0.10;;;8.50;99.90;;;;;;4982237;28;20224;-75
2022/09/28 01:01:07;;;;;;;0.10;0.10;;;8.50;99.90;;;;;;4980545;28;20212;-75
2022/09/28 01:03:37;;;;;;;0.10;0.10;;;8.50;99.90;;;;;;4991780;28;20266;-75
2022/09/28 01:06:07;;;;;;;0.10;0.10;;;8.60;99.90;;;;;;4956253;28;20687;-75
2022/09/28 01:08:36;;;;;;;0.10;0.10;;;8.60;99.90;;;;;;4991298;28;20204;-75
2022/09/28 01:11:05;;;;;;;0.10;0.10;;;8.50;99.90;;;;;;4988740;28;20215;-74
2022/09/28 01:13:34;;;;;;;0.10;0.10;;;8.40;99.90;;;;;;4984532;28;20625;-73
2022/09/28 01:16:11;;;;;;;0.10;0.10;;;8.40;99.90;;;;;;4990050;28;20231;-73
2022/09/28 01:18:47;;;;;;;0.10;0.10;;;8.40;99.90;;;;;;4983534;28;20200;-73
2022/09/28 01:21:18;;;;;;;0.10;0.10;;;8.40;99.90;;;;;;4991895;28;20291;-73
2022/09/28 01:24:25;;;;;;;0.10;0.10;;;8.50;99.90;;;;;;4973470;28;20208;-73
2022/09/28 01:27:13;;;;;;;0.10;0.10;;;8.50;99.90;;;;;;4980037;28;20255;-73
2022/09/28 01:29:49;;;;;;;0.10;0.10;;;8.50;99.90;;;;;;4984742;28;20209;-74
2022/09/28 01:32:25;;;;;;;0.10;0.10;;;8.50;99.90;;;;;;4982362;28;20223;-74
2022/09/28 01:34:58;;;;;;;0.10;0.10;;;8.60;99.90;;;;;;4936841;29;20280;-74
2022/09/28 01:37:31;;;;;;;0.10;0.10;;;8.60;99.90;;;;;;4967662;28;20208;-74
2022/09/28 01:40:02;;;;;;;0.10;0.10;;;8.60;99.90;;;;;;4973346;28;20201;-74
2022/09/28 01:42:34;;;;;;;0.10;0.10;;;8.60;99.90;;;;;;4981158;28;20211;-74
2022/09/28 01:45:09;;;;;;;0.10;0.10;;;8.60;99.90;;;;;;4991228;28;20252;-74
2022/09/28 01:47:39;;;;;;;0.10;0.10;;;8.50;99.90;;;;;;4988441;28;20200;-74
2022/09/28 01:50:11;;;;;;;0.10;0.10;;;8.50;99.90;;;;;;4972153;28;20197;-74
2022/09/28 01:52:47;;;;;;;0.10;0.10;;;8.50;99.90;;;;;;4983745;28;20263;-73
2022/09/28 01:55:24;;;;;;;0.10;0.10;;;8.40;99.90;;;;;;4971972;28;20224;-73
2022/09/28 01:57:57;;;;;;;0.10;0.10;;;8.40;99.90;;;;;;4988602;28;20247;-74
2022/09/28 02:00:26;;;;;;;0.10;0.10;;;8.30;99.90;;;;;;4992068;28;20610;-74
2022/09/28 02:02:59;;;;;;;0.10;0.10;;;8.30;99.90;;;;;;4975916;28;20200;-74
2022/09/28 02:05:38;;;;;;;0.10;0.10;;;8.20;99.90;;;;;;4993884;28;20255;-75
2022/09/28 02:08:09;;;;;;;0.10;0.10;;;8.20;99.90;;;;;;4983852;28;20624;-75
2022/09/28 02:10:40;;;;;;;0.10;0.10;;;8.20;99.90;;;;;;4993772;28;20216;-75
2022/09/28 02:13:15;;;;;;;0.10;0.10;;;8.20;99.90;;;;;;4979142;28;20304;-75
2022/09/28 02:15:49;;;;;;;0.10;0.10;;;8.20;99.90;;;;;;4992991;23;20233;-76
2022/09/28 02:18:17;;;;;;;0.10;0.10;;;8.20;99.90;;;;;;4981880;28;20215;-76
2022/09/28 02:20:51;;;;;;;0.10;0.10;;;8.20;99.90;;;;;;4970114;28;20236;-77
2022/09/28 02:23:24;;;;;;;0.10;0.10;;;8.20;99.90;;;;;;4983648;28;20204;-77
2022/09/28 02:25:58;;;;;;;0.10;0.10;;;8.20;99.90;;;;;;4968204;28;20221;-77
2022/09/28 02:28:28;;;;;;;0.10;0.10;;;8.20;99.90;;;;;;4959991;28;20605;-77
2022/09/28 02:30:56;;;;;;;0.10;0.10;;;8.20;99.90;;;;;;4950270;29;20206;-76
2022/09/28 02:33:28;;;;;;;0.10;0.10;;;8.10;99.90;;;;;;4963094;28;20205;-76
2022/09/28 02:35:57;;;;;;;0.10;0.10;;;8.10;99.90;;;;;;4971537;28;20242;-77
2022/09/28 02:38:26;;;;;;;0.10;0.10;;;8.10;99.90;;;;;;4963034;28;20220;-76
2022/09/28 02:41:02;;;;;;;0.10;0.10;;;8.10;99.90;;;;;;4973133;28;20209;-77
2022/09/28 02:43:39;;;;;;;0.10;0.10;;;8.10;99.90;;;;;;4964039;28;20208;-76
2022/09/28 02:46:15;;;;;;;0.10;0.10;;;8.00;99.90;;;;;;4972176;28;20746;-77
2022/09/28 02:48:58;;;;;;;0.10;0.10;;;8.10;99.90;;;;;;4952560;28;20232;-77
2022/09/28 02:51:58;;;;;;;0.10;0.10;;;8.10;99.90;;;;;;4970904;28;20204;-78
2022/09/28 02:54:38;;;;;;;0.10;0.10;;;8.10;99.90;;;;;;4952538;29;20209;-76
2022/09/28 02:57:19;;;;;;;0.10;0.10;;;8.10;99.90;;;;;;4961199;28;20292;-76
2022/09/28 02:59:54;;;;;;;0.10;0.10;;;8.10;99.90;;;;;;4970955;28;20668;-76
2022/09/28 03:02:28;;;;;;;0.10;0.10;;;8.10;99.90;;;;;;4945953;29;20208;-76
2022/09/28 03:05:16;;;;;;;0.10;0.10;;;8.10;99.90;;;;;;4971902;28;20462;-76
2022/09/28 03:07:54;;;;;;;0.10;0.10;;;8.10;99.90;;;;;;4967383;28;20248;-76
2022/09/28 03:10:27;;;;;;;0.10;0.10;;;8.10;99.90;;;;;;4953050;29;20205;-76
2022/09/28 03:12:56;;;;;;;0.10;0.10;;;8.10;99.90;;;;;;4960934;28;20213;-76
2022/09/28 03:15:27;;;;;;;0.10;0.10;;;8.10;99.90;;;;;;4972590;28;20299;-77
2022/09/28 03:17:56;;;;;;;0.10;0.10;;;8.10;99.90;;;;;;4956974;28;20256;-77
2022/09/28 03:20:24;;;;;;;0.10;0.10;;;8.10;99.90;;;;;;4952972;29;20205;-77
2022/09/28 03:22:52;;;;;;;0.10;0.10;;;8.10;99.90;;;;;;4962258;28;20212;-77
2022/09/28 03:25:40;;;;;;;0.10;0.10;;;8.10;99.90;;;;;;4969923;28;20229;-77
2022/09/28 03:28:08;;;;;;;0.10;0.10;;;8.10;99.90;;;;;;4971829;28;20249;-77
2022/09/28 03:30:41;;;;;;;0.00;0.00;;;8.10;99.90;;;;;;4973646;28;20202;-77
2022/09/28 03:33:09;;;;;;;0.10;0.10;;;8.10;99.90;;;;;;4968025;28;20202;-77
2022/09/28 03:35:38;;;;;;;0.10;0.10;;;8.00;99.90;;;;;;4955963;28;20227;-77
2022/09/28 03:38:06;;;;;;;0.10;0.10;;;8.00;99.90;;;;;;4969178;28;20216;-77
2022/09/28 03:40:37;;;;;;;0.10;0.10;;;8.00;99.90;;;;;;4962043;28;20651;-77
2022/09/28 03:43:05;;;;;;;0.10;0.10;;;8.10;99.90;;;;;;4981488;28;20216;-77
2022/09/28 03:45:33;;;;;;;0.10;0.10;;;8.10;99.90;;;;;;4979131;28;20225;-77
2022/09/28 03:48:03;;;;;;;0.10;0.10;;;8.20;99.90;;;;;;4960272;29;20210;-77
2022/09/28 03:50:33;;;;;;;0.10;0.10;;;8.20;99.90;;;;;;4959694;29;20206;-77
2022/09/28 03:53:04;;;;;;;0.10;0.10;;;8.20;99.90;;;;;;4955771;28;20220;-77
2022/09/28 03:55:32;;;;;;;0.10;0.10;;;8.10;99.90;;;;;;4956229;28;20716;-77
2022/09/28 03:58:00;;;;;;;0.10;0.10;;;8.10;99.90;;;;;;4969739;28;20256;-77
2022/09/28 04:00:29;;;;;;;0.08;0.08;;;8.10;99.90;;;;;;4973278;28;20573;-77
2022/09/28 04:02:57;;;;;;;0.10;0.10;;;8.00;99.90;;;;;;4975807;28;20299;-77
2022/09/28 04:05:26;;;;;;;0.10;0.10;;;8.00;99.90;;;;;;4976034;28;20252;-77
2022/09/28 04:07:56;;;;;;;0.10;0.10;;;8.00;99.90;;;;;;4969349;28;20310;-77
2022/09/28 04:10:24;;;;;;;0.10;0.10;;;8.00;99.90;;;;;;4980051;28;20220;-77
2022/09/28 04:12:54;;;;;;;0.10;0.10;;;8.10;99.90;;;;;;4949020;29;20216;-76
2022/09/28 04:15:23;;;;;;;0.10;0.10;;;8.10;99.90;;;;;;4974695;28;20320;-77
2022/09/28 04:17:51;;;;;;;0.10;0.10;;;8.00;99.90;;;;;;4967121;28;20229;-77
2022/09/28 04:20:47;;;;;;;0.10;0.10;;;8.00;99.90;;;;;;4929861;29;20743;-77
2022/09/28 04:23:15;;;;;;;0.10;0.10;;;8.00;99.90;;;;;;4949306;28;20276;-77
2022/09/28 04:25:47;;;;;;;0.10;0.10;;;8.00;99.90;;;;;;4973802;28;20256;-77
2022/09/28 04:31:01;;;;;;;0.10;0.10;;;8.00;99.90;;;;;;4974590;28;20212;-77
2022/09/28 04:33:29;;;;;;;0.10;0.10;;;8.00;99.90;;;;;;4966118;28;20677;-77
2022/09/28 04:35:59;;;;;;;0.10;0.10;;;7.90;99.90;;;;;;4939044;29;20230;-77
2022/09/28 04:38:27;;;;;;;0.10;0.10;;;7.90;99.90;;;;;;4957790;28;20654;-76
2022/09/28 04:41:16;;;;;;;0.10;0.10;;;7.90;99.90;;;;;;4971253;28;20201;-76
2022/09/28 04:43:46;;;;;;;0.10;0.10;;;7.90;99.90;;;;;;4959698;28;20233;-76
2022/09/28 04:46:15;;;;;;;0.10;0.10;;;7.90;99.90;;;;;;4950558;28;20226;-76
2022/09/28 04:48:51;;;;;;;0.10;0.10;;;7.90;99.90;;;;;;4966255;28;20267;-76
2022/09/28 04:51:32;;;;;;;0.10;0.10;;;7.90;99.90;;;;;;4971693;28;20209;-76
2022/09/28 04:54:00;;;;;;;0.10;0.10;;;7.90;99.90;;;;;;4946152;28;20684;-76
2022/09/28 04:56:28;;;;;;;0.10;0.10;;;7.90;99.90;;;;;;4968646;28;20264;-76
2022/09/28 04:58:56;;;;;;;0.10;0.10;;;7.90;99.90;;;;;;4968286;28;20868;-76
2022/09/28 05:01:24;;;;;;;0.10;0.10;;;7.90;99.90;;;;;;4954158;28;20237;-76
2022/09/28 05:04:24;;;;;;;0.10;0.10;;;7.80;99.90;;;;;;4955905;28;20229;-76
2022/09/28 05:07:20;;;;;;;0.10;0.10;;;7.80;99.90;;;;;;4944533;29;20209;-76
2022/09/28 05:09:49;;;;;;;0.10;0.10;;;7.80;99.90;;;;;;4959250;28;20710;-76
2022/09/28 05:12:17;;;;;;;0.10;0.10;;;7.80;99.90;;;;;;4953138;29;20209;-76
2022/09/28 05:14:44;;;;;;;0.10;0.10;;;7.80;99.90;;;;;;4953126;28;20201;-75
2022/09/28 05:17:12;;;;;;;0.10;0.10;;;7.80;99.90;;;;;;4953404;28;20230;-76
2022/09/28 05:19:57;;;;;;;0.10;0.10;;;7.80;99.90;;;;;;4941622;28;20701;-76
2022/09/28 05:22:27;;;;;;;0.10;0.10;;;7.80;99.90;;;;;;4955481;29;20269;-77
2022/09/28 05:24:57;;;;;;;0.10;0.10;;;7.80;99.90;;;;;;4958143;28;20225;-75
2022/09/28 05:27:27;;;;;;;0.10;0.10;;;7.90;99.90;;;;;;4974173;29;20213;-76
2022/09/28 05:30:04;;;;;;;0.10;0.10;;;7.90;99.90;;;;;;4972388;28;20209;-76
2022/09/28 05:32:55;;;;;;;0.10;0.10;;;7.90;99.90;;;;;;4966915;29;20657;-76
2022/09/28 05:35:32;;;;;;;0.05;0.05;;;7.90;99.90;;;;;;4973629;28;20277;-77
2022/09/28 05:38:04;;;;;;;0.10;0.10;;;7.90;99.90;;;;;;4989875;28;20221;-76
2022/09/28 05:40:33;;;;;;;0.10;0.10;;;7.90;99.90;;;;;;4972859;28;20190;-76
2022/09/28 05:43:01;;;;;;;0.10;0.10;;;7.90;99.90;;;;;;4935186;29;20833;-76
2022/09/28 05:45:30;;;;;;;0.10;0.10;;;7.80;99.90;;;;;;4935078;28;20301;-76
2022/09/28 05:47:57;;;;;;;0.10;0.10;;;7.80;99.90;;;;;;4935600;29;20211;-76
2022/09/28 05:50:25;;;;;;;0.10;0.10;;;7.90;99.90;;;;;;4935108;28;20206;-76
2022/09/28 05:53:01;;;;;;;0.10;0.10;;;7.80;99.90;;;;;;4933871;29;20215;-76
2022/09/28 05:55:30;;;;;;;0.05;0.05;;;7.80;99.90;;;;;;4948003;28;20726;-76
2022/09/28 05:57:59;;;;;;;0.10;0.10;;;7.80;99.90;;;;;;4960259;28;20216;-76
2022/09/28 06:00:27;;;;;;;0.03;0.03;;;7.80;99.90;;;;;;4956032;28;20213;-76
2022/09/28 06:02:58;;;;;;;0.10;0.10;;;7.80;99.90;;;;;;4950314;29;20714;-76
2022/09/28 06:05:27;;;;;;;0.10;0.10;;;7.80;99.90;;;;;;4941873;28;20237;-76
2022/09/28 06:07:56;;;;;;;0.10;0.10;;;7.80;99.90;;;;;;4945248;28;20205;-76
2022/09/28 06:10:25;;;;;;;0.10;0.10;;;7.90;99.90;;;;;;4953239;28;20217;-76
2022/09/28 06:12:59;;;;;;;0.10;0.10;;;7.80;99.90;;;;;;4935026;29;20296;-76
2022/09/28 06:15:30;;;;;;;0.10;0.10;;;7.90;99.90;;;;;;4944326;28;20237;-76
2022/09/28 06:18:01;;;;;;;0.10;0.10;;;7.90;99.90;;;;;;4945046;29;20226;-76
2022/09/28 06:20:47;;;;;;;0.10;0.10;;;7.90;99.90;;;;;;4955785;28;20252;-76
2022/09/28 06:23:16;;;;;;;0.10;0.10;;;7.90;99.90;;;;;;4955876;28;20222;-76
2022/09/28 06:25:44;;;;;;;0.10;0.10;;;7.90;99.90;;;;;;4960445;28;20647;-76
2022/09/28 06:28:15;;;;;;;0.10;0.10;;;7.90;99.90;;;;;;4952630;28;20201;-76
2022/09/28 06:30:43;;;;;;;0.00;0.00;;;7.90;99.90;;;;;;4949872;28;20221;-76
2022/09/28 06:33:15;;;;;;;0.10;0.10;;;7.90;99.90;;;;;;4958624;28;20544;-76
2022/09/28 06:35:43;;;;;;;0.10;0.10;;;7.90;99.90;;;;;;4940516;28;20222;-76
2022/09/28 06:38:12;;;;;;;0.00;0.00;;;8.00;99.90;;;;;;4944140;29;20260;-77
2022/09/28 06:40:39;;;;;;;0.10;0.10;;;8.00;99.90;;;;;;4958194;28;20303;-76
2022/09/28 06:43:11;;;;;;;0.10;0.10;;;8.00;99.90;;;;;;4955134;28;20261;-76
2022/09/28 06:45:59;;;;;;;0.10;0.10;;;8.00;99.90;;;;;;4954867;28;20249;-76
2022/09/28 06:48:45;;;;;;;0.10;0.10;;;8.10;99.90;;;;;;4954019;28;20205;-76
2022/09/28 06:51:18;;;;;;;0.10;0.10;;;8.00;99.90;;;;;;4952870;28;20266;-76
2022/09/28 06:54:04;;;;;;;0.10;0.10;;;8.00;99.90;;;;;;4954439;28;20294;-76
2022/09/28 06:56:58;;;;;;;0.10;0.10;;;8.00;99.90;;;;;;4949981;28;20217;-76
2022/09/28 06:59:26;;;;;;;0.10;0.10;;;8.00;99.90;;;;;;4953555;28;20272;-76
2022/09/28 07:01:55;;;;;;;0.10;0.10;;;8.00;99.90;;;;;;4949840;28;20280;-76
2022/09/28 07:04:47;;;;;;;0.10;0.10;;;8.10;99.90;;;;;;4939501;29;20266;-76
2022/09/28 07:07:50;;;;;;;0.10;0.10;;;8.10;99.90;;;;;;4920813;29;20214;-76
2022/09/28 07:10:42;;;;;;;0.10;0.10;;;8.10;99.90;;;;;;4921861;29;20250;-76
2022/09/28 07:13:42;;;;;;;0.10;0.10;;;8.20;99.90;;;;;;4930658;28;20201;-76
2022/09/28 07:16:21;;;;;;;0.10;0.10;;;8.20;99.90;;;;;;4940493;28;20237;-76
2022/09/28 07:18:56;;;;;;;0.10;0.10;;;8.30;99.90;;;;;;4954050;28;20566;-76
2022/09/28 07:21:24;;;;;;;0.10;0.10;;;8.30;99.90;;;;;;4941822;28;20757;-76
2022/09/28 07:24:00;;;;;;;0.10;0.10;;;8.30;99.90;;;;;;4957766;28;20209;-76
2022/09/28 07:26:48;;;;;;;0.10;0.10;;;8.30;99.90;;;;;;4975208;28;20304;-76
2022/09/28 07:29:38;;;;;;;0.10;0.10;;;8.40;99.90;;;;;;4952758;28;20624;-76
2022/09/28 07:32:18;;;;;;;0.10;0.10;;;8.40;99.90;;;;;;4939857;29;20199;-78
2022/09/28 07:35:08;;;;;;;0.10;0.10;;;8.40;99.90;;;;;;4945846;28;20197;-76
2022/09/28 07:37:43;;;;;;;0.10;0.10;;;8.50;99.90;;;;;;4952835;28;20210;-76
2022/09/28 07:43:04;;;;;;;0.00;0.00;;;8.60;99.90;;;;;;4956079;28;20209;-76
2022/09/28 07:45:32;;;;;;;0.10;0.10;;;8.60;99.90;;;;;;4950431;28;20217;-76
2022/09/28 07:48:01;;;;;;;0.10;0.10;;;8.70;99.90;;;;;;4942377;29;20501;-76
2022/09/28 07:50:53;;;;;;;0.08;0.08;;;8.80;99.90;;;;;;4952569;28;20285;-76
2022/09/28 07:53:31;;;;;;;0.10;0.10;;;8.80;99.90;;;;;;4953127;29;20676;-76
2022/09/28 07:56:19;;;;;;;0.10;0.10;;;8.80;99.90;;;;;;4970056;28;20231;-76
2022/09/28 07:58:56;;;;;;;0.10;0.10;;;8.70;99.90;;;;;;4939580;28;20716;-77
2022/09/28 08:01:39;;;;;;;0.10;0.10;;;8.70;99.90;;;;;;4957411;29;20256;-76
2022/09/28 08:04:09;;;;;;;0.10;0.10;;;8.80;99.90;;;;;;4938868;29;20202;-76
2022/09/28 08:06:40;;;;;;;0.10;0.10;;;8.80;99.90;;;;;;4954137;28;20218;-76
2022/09/28 08:09:10;;;;;;;0.10;0.10;;;9.00;99.90;;;;;;4956543;28;20206;-76
2022/09/28 08:11:58;;;;;;;0.10;0.10;;;9.10;99.90;;;;;;4953442;28;20601;-76
2022/09/28 08:14:45;;;;;;;0.10;0.10;;;9.10;99.90;;;;;;4955892;28;20190;-76
2022/09/28 08:17:32;;;;;;;0.00;0.00;;;9.10;99.90;;;;;;4997355;23;20247;-78
2022/09/28 08:22:52;;;;;;;0.10;0.10;;;9.00;99.90;;;;;;4964837;28;20201;-76
2022/09/28 08:25:19;;;;;;;0.10;0.10;;;9.00;99.90;;;;;;4979960;28;20613;-76
2022/09/28 08:27:48;;;;;;;0.10;0.10;;;9.10;99.90;;;;;;4967120;28;20197;-75
2022/09/28 08:30:16;;;;;;;0.10;0.10;;;9.10;99.90;;;;;;4966113;28;20534;-76
2022/09/28 08:33:06;;;;;;;0.10;0.10;;;9.10;99.90;;;;;;4955489;29;20621;-76
2022/09/28 08:35:44;;;;;;;0.10;0.10;;;9.20;99.90;;;;;;4973107;28;20592;-79
2022/09/28 08:38:42;;;;;;;0.10;0.10;;;9.20;99.90;;;;;;4920414;29;20215;-79
2022/09/28 08:41:46;;;;;;;0.10;0.10;;;9.40;99.90;;;;;;4928026;28;20202;-79
2022/09/28 08:44:41;;;;;;;0.10;0.10;;;9.40;99.90;;;;;;4966673;28;20246;-77
2022/09/28 08:50:39;;;;;;;0.10;0.10;;;9.50;99.90;;;;;;4975412;28;20307;-77
2022/09/28 08:53:33;;;;;;;0.10;0.10;;;9.60;99.90;;;;;;4962591;28;20209;-78
2022/09/28 08:56:14;;;;;;;0.10;0.10;;;9.60;99.90;;;;;;4975606;28;20693;-79
2022/09/28 08:58:47;;;;;;;0.10;0.10;;;9.60;99.90;;;;;;4962390;28;20205;-76
2022/09/28 09:01:19;;;;;;;0.10;0.10;;;9.60;99.90;;;;;;4961387;28;20299;-76
2022/09/28 09:03:49;;;;;;;0.10;0.10;;;9.70;99.90;;;;;;4968729;28;20209;-76
2022/09/28 09:06:33;;;;;;;0.10;0.10;;;9.70;99.90;;;;;;4965696;28;20237;-76
2022/09/28 09:09:31;;;;;;;0.10;0.10;;;9.80;99.90;;;;;;4965880;28;20625;-77
2022/09/28 09:12:10;;;;;;;0.10;0.10;;;9.80;99.90;;;;;;4977159;28;20247;-77
2022/09/28 09:15:10;;;;;;;0.10;0.10;;;9.90;99.90;;;;;;4962381;28;20297;-77
2022/09/28 09:17:47;;;;;;;0.10;0.10;;;10.00;99.90;;;;;;4952721;28;20237;-78
2022/09/28 09:20:33;;;;;;;0.10;0.10;;;10.00;99.90;;;;;;4947143;28;20620;-77
2022/09/28 09:23:13;;;;;;;0.10;0.10;;;10.10;99.90;;;;;;4966804;28;20563;-76
2022/09/28 09:25:46;;;;;;;0.10;0.10;;;10.10;99.90;;;;;;4965995;28;20213;-77
2022/09/28 09:28:37;;;;;;;0.10;0.10;;;10.10;99.90;;;;;;4936737;29;20237;-77
2022/09/28 09:31:19;;;;;;;0.10;0.10;;;10.00;99.90;;;;;;4947212;28;20213;-77
2022/09/28 09:34:10;;;;;;;0.10;0.10;;;9.90;99.90;;;;;;4956786;28;20660;-78
2022/09/28 09:37:19;;;;;;;0.10;0.10;;;9.90;99.90;;;;;;4958992;28;20261;-77
2022/09/28 09:40:23;;;;;;;0.10;0.10;;;10.00;99.90;;;;;;4937511;28;20342;-76
2022/09/28 09:43:39;;;;;;;0.10;0.10;;;10.10;99.90;;;;;;4973619;28;20255;-77
2022/09/28 09:46:33;;;;;;;0.10;0.10;;;10.20;99.90;;;;;;4962991;28;20323;-80
2022/09/28 09:49:19;;;;;;;0.10;0.10;;;10.40;99.90;;;;;;4955057;28;20205;-79
2022/09/28 09:51:53;;;;;;;0.10;0.10;;;10.60;99.90;;;;;;4958913;28;20613;-79
2022/09/28 09:54:26;;;;;;;0.10;0.10;;;10.70;99.90;;;;;;4957246;28;20192;-77
2022/09/28 09:57:02;;;;;;;0.10;0.10;;;10.70;99.90;;;;;;4962483;28;20236;-77
2022/09/28 09:59:49;;;;;;;0.10;0.10;;;11.00;99.90;;;;;;4971649;28;20228;-78
2022/09/28 10:02:25;;;;;;;0.10;0.10;;;11.10;99.90;;;;;;4953915;28;20217;-77
2022/09/28 10:05:19;;;;;;;0.10;0.10;;;11.30;99.90;;;;;;4941020;28;20319;-75
2022/09/28 10:07:53;;;;;;;0.10;0.10;;;11.50;99.90;;;;;;4972520;28;20227;-76
2022/09/28 10:10:25;;;;;;;0.10;0.10;;;11.60;99.90;;;;;;4986195;28;20833;-76
2022/09/28 10:13:00;;;;;;;0.10;0.10;;;11.80;99.90;;;;;;4936781;29;20589;-75
2022/09/28 10:15:32;;;;;;;0.10;0.10;;;11.70;99.90;;;;;;4952020;28;20225;-75
2022/09/28 10:18:14;;;;;;;0.10;0.10;;;11.60;99.90;;;;;;4969478;28;20208;-76
2022/09/28 10:21:22;;;;;;;0.10;0.10;;;11.30;99.90;;;;;;4961893;28;20586;-76
2022/09/28 10:24:07;;;;;;;0.10;0.10;;;10.90;99.90;;;;;;4936681;29;20211;-76
2022/09/28 10:26:38;;;;;;;0.10;0.10;;;10.90;99.90;;;;;;4952476;28;20226;-78
2022/09/28 10:29:15;;;;;;;0.10;0.10;;;10.90;99.90;;;;;;4936243;29;20268;-76
2022/09/28 10:31:47;;;;;;;0.10;0.10;;;10.90;99.90;;;;;;4965748;28;20205;-77
2022/09/28 10:34:29;;;;;;;0.03;0.03;;;11.00;99.90;;;;;;4955103;28;20223;-77
2022/09/28 10:37:09;;;;;;;0.00;0.00;;;11.10;99.90;;;;;;4971381;28;20591;-76
2022/09/28 10:39:57;;;;;;;0.10;0.10;;;11.20;99.90;;;;;;4951389;29;20273;-77
2022/09/28 10:42:30;;;;;;;0.00;0.00;;;11.30;99.90;;;;;;4955159;28;20629;-79
2022/09/28 10:45:03;;;;;;;0.10;0.10;;;11.30;99.90;;;;;;4988270;28;20211;-78
2022/09/28 10:47:37;;;;;;;0.00;0.00;;;11.50;99.90;;;;;;4947296;28;20224;-78
2022/09/28 10:50:19;;;;;;;0.10;0.10;;;11.60;99.90;;;;;;4957957;28;20193;-77
2022/09/28 10:52:47;;;;;;;0.10;0.10;;;11.80;99.90;;;;;;4939836;29;20205;-78
2022/09/28 10:56:00;;;;;;;0.10;0.10;;;11.50;99.90;;;;;;4957571;28;20229;-77
2022/09/28 10:58:34;;;;;;;0.10;0.10;;;10.90;99.90;;;;;;4955469;28;20235;-77
2022/09/28 11:01:09;;;;;;;0.10;0.10;;;10.60;99.90;;;;;;4955388;28;20605;-77
2022/09/28 11:03:49;;;;;;;0.10;0.10;;;10.30;99.90;;;;;;4956875;29;20193;-76
2022/09/28 11:06:25;;;;;;;0.10;0.10;;;10.10;99.90;;;;;;4940304;28;20354;-76
2022/09/28 11:08:54;;;;;;;0.10;0.10;;;9.90;99.90;;;;;;4939924;29;20629;-77
2022/09/28 11:11:23;;;;;;;0.10;0.10;;;9.80;99.90;;;;;;4956095;28;20201;-76
2022/09/28 11:14:01;;;;;;;0.10;0.10;;;9.80;99.90;;;;;;4939126;29;20213;-76
2022/09/28 11:16:35;;;;;;;0.10;0.10;;;9.80;99.90;;;;;;4970984;28;20263;-77
2022/09/28 11:19:28;;;;;;;0.10;0.10;;;9.70;99.90;;;;;;4972177;28;20219;-77
2022/09/28 11:21:57;;;;;;;0.10;0.10;;;9.60;99.90;;;;;;4973102;28;20287;-76
2022/09/28 11:24:33;;;;;;;0.10;0.10;;;9.60;99.90;;;;;;4974972;28;20723;-77
2022/09/28 11:27:04;;;;;;;0.03;0.03;;;9.70;99.90;;;;;;4968329;28;20225;-76
2022/09/28 11:29:37;;;;;;;0.10;0.10;;;9.80;99.90;;;;;;4938984;29;20206;-78
2022/09/28 11:32:29;;;;;;;0.10;0.10;;;9.90;99.90;;;;;;4939243;28;20216;-76
2022/09/28 11:35:27;;;;;;;0.10;0.10;;;10.00;99.90;;;;;;4945880;29;20252;-77
2022/09/28 11:38:17;;;;;;;0.10;0.10;;;10.10;99.90;;;;;;4972414;28;20208;-77
2022/09/28 11:41:06;;;;;;;0.10;0.10;;;10.40;99.90;;;;;;4942539;28;20316;-77
2022/09/28 11:44:00;;;;;;;0.10;0.10;;;10.40;99.90;;;;;;4938830;29;20601;-77
2022/09/28 11:46:40;;;;;;;0.10;0.10;;;10.40;99.90;;;;;;4955026;28;20281;-77
2022/09/28 11:49:21;;;;;;;0.10;0.10;;;10.40;99.90;;;;;;4971384;28;20228;-77
2022/09/28 11:51:52;;;;;;;0.10;0.10;;;10.50;99.90;;;;;;4965244;28;20748;-77
2022/09/28 11:54:27;;;;;;;0.10;0.10;;;10.50;99.90;;;;;;4939576;29;20658;-77
2022/09/28 11:56:59;;;;;;;0.10;0.10;;;10.50;99.90;;;;;;4939000;28;20229;-78
2022/09/28 11:59:30;;;;;;;0.10;0.10;;;10.60;99.90;;;;;;4946603;29;20216;-77
2022/09/28 12:02:09;;;;;;;0.10;0.10;;;10.80;99.90;;;;;;4954638;28;20235;-78
2022/09/28 12:04:46;;;;;;;0.00;0.00;;;10.70;99.90;;;;;;4938366;29;20205;-78
2022/09/28 12:07:24;;;;;;;0.10;0.10;;;10.60;99.90;;;;;;4968832;28;20220;-77
2022/09/28 12:09:56;;;;;;;0.10;0.10;;;10.60;99.90;;;;;;4987973;28;20196;-77
2022/09/28 12:12:30;;;;;;;0.10;0.10;;;10.60;99.90;;;;;;4977136;28;20193;-77
2022/09/28 12:15:03;;;;;;;0.10;0.10;;;10.50;99.90;;;;;;4970497;28;20572;-77
2022/09/28 12:17:38;;;;;;;0.10;0.10;;;10.40;99.90;;;;;;4955533;28;20221;-77
2022/09/28 12:20:18;;;;;;;0.10;0.10;;;10.30;99.90;;;;;;4961554;28;20714;-78
2022/09/28 12:22:55;;;;;;;0.00;0.00;;;10.30;99.90;;;;;;4983718;28;20668;-78
2022/09/28 12:25:26;;;;;;;0.10;0.10;;;10.20;99.90;;;;;;4989625;28;20684;-78
2022/09/28 12:27:59;;;;;;;0.00;0.00;;;10.20;99.90;;;;;;4956130;28;20258;-78
2022/09/28 12:30:32;;;;;;;0.00;0.00;;;10.30;99.90;;;;;;4955683;28;20229;-78
2022/09/28 12:33:05;;;;;;;0.10;0.10;;;10.30;99.90;;;;;;4955657;28;20206;-77
2022/09/28 12:35:54;;;;;;;0.10;0.10;;;10.30;99.90;;;;;;4955631;29;20220;-78
2022/09/28 12:38:36;;;;;;;0.10;0.10;;;10.50;99.90;;;;;;4955556;28;20237;-77
2022/09/28 12:41:21;;;;;;;0.10;0.10;;;10.70;99.90;;;;;;4959484;28;20229;-78
2022/09/28 12:44:03;;;;;;;0.10;0.10;;;10.90;99.90;;;;;;4943347;28;20201;-78
2022/09/28 12:46:44;;;;;;;0.10;0.10;;;11.00;99.90;;;;;;4968717;28;20237;-78
2022/09/28 12:49:44;;;;;;;0.10;0.10;;;10.90;99.90;;;;;;4973488;28;20209;-77
2022/09/28 12:52:39;;;;;;;0.10;0.10;;;10.70;99.90;;;;;;4973850;28;20719;-78
2022/09/28 12:55:21;;;;;;;0.10;0.10;;;10.40;99.90;;;;;;4955274;29;20178;-78
2022/09/28 12:58:04;;;;;;;0.10;0.10;;;10.20;99.90;;;;;;4957285;28;20736;-77
2022/09/28 13:00:40;;;;;;;0.10;0.10;;;10.20;99.90;;;;;;4954432;28;20202;-78
2022/09/28 13:03:35;;;;;;;0.10;0.10;;;10.10;99.90;;;;;;4954024;28;20206;-77
2022/09/28 13:06:19;;;;;;;0.10;0.10;;;10.10;99.90;;;;;;4981495;28;20236;-77
2022/09/28 13:09:11;;;;;;;0.10;0.10;;;10.20;99.90;;;;;;4971672;28;20202;-77
2022/09/28 13:11:53;;;;;;;0.10;0.10;;;10.50;99.90;;;;;;4954308;28;20210;-78
2022/09/28 13:14:43;;;;;;;0.00;0.00;;;10.90;99.90;;;;;;4954655;28;20330;-77
2022/09/28 13:17:24;;;;;;;0.10;0.10;;;11.40;99.90;;;;;;4957506;28;20236;-76
2022/09/28 13:19:58;;;;;;;0.10;0.10;;;11.70;99.90;;;;;;4983823;28;20619;-80
2022/09/28 13:22:35;;;;;;;0.03;0.03;;;11.90;99.90;;;;;;4991418;28;20224;-77
2022/09/28 13:25:15;;;;;;;0.00;0.00;;;12.10;99.90;;;;;;4992752;28;20290;-76
2022/09/28 13:27:51;;;;;;;0.10;0.10;;;12.00;99.90;;;;;;4957102;28;20296;-78
2022/09/28 13:30:19;;;;;;;0.10;0.10;;;12.10;99.90;;;;;;4957718;28;20251;-78
2022/09/28 13:32:48;;;;;;;0.00;0.00;;;12.20;99.90;;;;;;4971020;28;20208;-79
2022/09/28 13:35:18;;;;;;;0.05;0.05;;;12.20;99.90;;;;;;4988201;28;20200;-79
2022/09/28 13:37:47;;;;;;;0.00;0.00;;;12.20;99.90;;;;;;4967113;28;20260;-78
2022/09/28 13:40:15;;;;;;;0.10;0.10;;;12.00;99.90;;;;;;4967056;28;20226;-79
2022/09/28 13:43:05;;;;;;;0.00;0.00;;;11.70;99.90;;;;;;4973757;28;20235;-83
2022/09/28 13:45:55;;;;;;;0.10;0.10;;;11.70;99.90;;;;;;4984907;28;20566;-78
2022/09/28 13:48:34;;;;;;;0.00;0.00;;;11.60;99.90;;;;;;4968562;28;20205;-80
2022/09/28 13:51:15;;;;;;;0.00;0.00;;;11.60;99.90;;;;;;4986251;28;20258;-78
2022/09/28 13:53:59;;;;;;;0.10;0.10;;;11.60;99.90;;;;;;4974487;28;20224;-79